Inverness, United Kingdom

11:28 PM BST on September 22, 2014 (GMT +0100)
Ardersier | Change Station
CLOSE
Current Station
Personal Weather Station
Location: Ardersier, SCOTLAND
Elevation: 20 ft
Nearby Weather Stations

Elev 20 ft 57.57 °N, 4.04 °W | Updated 9 seconds ago

Drizzle
Drizzle
54.0 °F
Feels Like 54.0 °F
N
1.2
Wind Variable Wind from WNW
Gusts 1.2 mph

Today
High -- | Low -- °F
--% Chance of Precip.
Yesterday
High -- | Low -- °F
Precip. -- in
7:00 AM 7:15 PM
Waning Crescent, 2% visible
Pressure 30.06 in
Visibility -9999.0 miles
Clouds Scattered Clouds 1300 ft
Mostly Cloudy 1700 ft
Dew Point 52 °F
Humidity 94%
Rainfall 0.05 in
Snow Depth Not available.
UV 0 out of 12
Pollen Not available.
Air Quality Not available.
Flu Activity Not available.
METAR EGPE 222220Z AUTO 22005KT 3600 DZ SCT013/// BKN017/// 12/12 Q1018

More Conditions Fewer Conditions

Pressure 30.06 in
Visibility -9999.0 miles
Clouds Scattered Clouds 1300 ft
Mostly Cloudy 1700 ft
Dew Point 52 °F
Humidity 94%
Rainfall 0.05 in
Snow Depth Not available.
UV 0 out of 12
Pollen Not available.
Air Quality Not available.
Flu Activity Not available.
METAR EGPE 222220Z AUTO 22005KT 3600 DZ SCT013/// BKN017/// 12/12 Q1018

More Conditions Fewer Conditions

10-Day Weather Forecast

Almanac

Astronomy

Sep. 22, 2014 Rise Set
Actual Time 7:00 AM BST 7:15 PM BST
Civil Twilight 6:21 AM BST 7:54 PM BST
Nautical Twilight 5:35 AM BST 8:40 PM BST
Astronomical Twilight 4:45 AM BST 9:30 PM BST
Moon 5:00 AM BST 6:25 PM BST
Length of Visible Light 13h 32m
Length of Day
12h 15m
Tomorrow will be 4m 54s shorter.
Waning Crescent, 2% of the Moon is Illuminated
Today
Waning Crescent
Sep 24
New
Oct 1
First Quarter
Oct 8
Full
Oct 15
Last Quarter

Today's Extremes

Country Highs Country Lows

Community

WunderPhotos

Upload Photos

1,755,541 photos uploaded!

Nearby

Snow Depth

Not available.

Earthquake Activity

City Distance Mag. Time & Date
No recent earthquake activity has been reported nearby.
Minimum magnitude displayed is 2.5.

Coastal Water Temperatures

Place Temperature
No Stations Reporting

Nearby Weather Stations